sensor_id;sensor_type;location;lat;lon;timestamp;P1;durP1;ratioP1;P2;durP2;ratioP2
47153;SDS011;32907;41.412;2.164;2023-03-12T00:01:22;7.85;;;3.30;;
47153;SDS011;32907;41.412;2.164;2023-03-12T00:03:59;7.65;;;3.40;;
47153;SDS011;32907;41.412;2.164;2023-03-12T00:06:29;7.80;;;3.47;;
47153;SDS011;32907;41.412;2.164;2023-03-12T00:08:58;9.43;;;4.13;;
47153;SDS011;32907;41.412;2.164;2023-03-12T00:11:28;8.18;;;3.47;;
47153;SDS011;32907;41.412;2.164;2023-03-12T00:13:57;7.15;;;3.80;;
47153;SDS011;32907;41.412;2.164;2023-03-12T00:16:26;8.65;;;3.60;;
47153;SDS011;32907;41.412;2.164;2023-03-12T00:18:54;6.82;;;2.97;;
47153;SDS011;32907;41.412;2.164;2023-03-12T00:21:22;6.90;;;3.30;;
47153;SDS011;32907;41.412;2.164;2023-03-12T00:23:51;7.93;;;2.63;;
47153;SDS011;32907;41.412;2.164;2023-03-12T00:26:20;7.22;;;3.28;;
47153;SDS011;32907;41.412;2.164;2023-03-12T00:28:48;9.00;;;3.38;;
47153;SDS011;32907;41.412;2.164;2023-03-12T00:31:21;8.15;;;3.78;;
47153;SDS011;32907;41.412;2.164;2023-03-12T00:36:23;12.55;;;3.80;;
47153;SDS011;32907;41.412;2.164;2023-03-12T00:38:53;9.25;;;3.70;;
47153;SDS011;32907;41.412;2.164;2023-03-12T00:41:23;10.65;;;3.55;;
47153;SDS011;32907;41.412;2.164;2023-03-12T00:43:52;13.27;;;3.65;;
47153;SDS011;32907;41.412;2.164;2023-03-12T00:46:20;7.05;;;3.05;;
47153;SDS011;32907;41.412;2.164;2023-03-12T00:48:48;8.13;;;3.50;;
47153;SDS011;32907;41.412;2.164;2023-03-12T00:51:16;7.22;;;3.28;;
47153;SDS011;32907;41.412;2.164;2023-03-12T00:53:44;8.68;;;3.65;;
47153;SDS011;32907;41.412;2.164;2023-03-12T00:56:13;11.23;;;3.70;;
47153;SDS011;32907;41.412;2.164;2023-03-12T00:58:41;8.02;;;3.65;;
47153;SDS011;32907;41.412;2.164;2023-03-12T01:01:09;9.77;;;3.22;;
47153;SDS011;32907;41.412;2.164;2023-03-12T01:03:39;8.95;;;3.60;;
47153;SDS011;32907;41.412;2.164;2023-03-12T01:06:07;7.45;;;3.50;;
47153;SDS011;32907;41.412;2.164;2023-03-12T01:08:37;9.38;;;3.55;;
47153;SDS011;32907;41.412;2.164;2023-03-12T01:11:05;6.80;;;3.38;;
47153;SDS011;32907;41.412;2.164;2023-03-12T01:13:36;8.18;;;3.88;;
47153;SDS011;32907;41.412;2.164;2023-03-12T01:16:05;6.95;;;3.85;;
47153;SDS011;32907;41.412;2.164;2023-03-12T01:18:33;6.68;;;3.72;;
47153;SDS011;32907;41.412;2.164;2023-03-12T01:21:03;8.57;;;3.67;;
47153;SDS011;32907;41.412;2.164;2023-03-12T01:23:32;7.00;;;3.20;;
47153;SDS011;32907;41.412;2.164;2023-03-12T01:26:00;7.28;;;3.50;;
47153;SDS011;32907;41.412;2.164;2023-03-12T01:28:28;8.50;;;3.60;;
47153;SDS011;32907;41.412;2.164;2023-03-12T01:30:56;8.82;;;3.63;;
47153;SDS011;32907;41.412;2.164;2023-03-12T01:33:23;6.90;;;3.72;;
47153;SDS011;32907;41.412;2.164;2023-03-12T01:35:52;10.18;;;3.70;;
47153;SDS011;32907;41.412;2.164;2023-03-12T01:38:22;11.68;;;3.97;;
47153;SDS011;32907;41.412;2.164;2023-03-12T01:40:50;8.13;;;4.15;;
47153;SDS011;32907;41.412;2.164;2023-03-12T01:51:27;7.35;;;4.03;;
47153;SDS011;32907;41.412;2.164;2023-03-12T01:53:59;7.43;;;4.20;;
47153;SDS011;32907;41.412;2.164;2023-03-12T01:56:32;7.82;;;3.88;;
47153;SDS011;32907;41.412;2.164;2023-03-12T01:59:08;7.93;;;3.85;;
47153;SDS011;32907;41.412;2.164;2023-03-12T02:01:39;9.68;;;4.25;;
47153;SDS011;32907;41.412;2.164;2023-03-12T02:04:09;6.88;;;3.58;;
47153;SDS011;32907;41.412;2.164;2023-03-12T02:06:42;8.35;;;4.05;;
47153;SDS011;32907;41.412;2.164;2023-03-12T02:11:47;5.47;;;3.33;;
47153;SDS011;32907;41.412;2.164;2023-03-12T02:14:16;5.70;;;3.13;;
47153;SDS011;32907;41.412;2.164;2023-03-12T02:16:44;6.30;;;2.90;;
47153;SDS011;32907;41.412;2.164;2023-03-12T02:19:15;8.00;;;3.40;;
47153;SDS011;32907;41.412;2.164;2023-03-12T02:21:50;8.15;;;3.20;;
47153;SDS011;32907;41.412;2.164;2023-03-12T02:26:55;10.05;;;2.90;;
47153;SDS011;32907;41.412;2.164;2023-03-12T02:29:24;7.63;;;3.35;;
47153;SDS011;32907;41.412;2.164;2023-03-12T02:31:55;6.25;;;2.88;;
47153;SDS011;32907;41.412;2.164;2023-03-12T02:34:26;5.78;;;2.83;;
47153;SDS011;32907;41.412;2.164;2023-03-12T02:36:53;5.32;;;2.53;;
47153;SDS011;32907;41.412;2.164;2023-03-12T02:39:21;7.72;;;2.90;;
47153;SDS011;32907;41.412;2.164;2023-03-12T02:41:50;6.20;;;2.78;;
47153;SDS011;32907;41.412;2.164;2023-03-12T02:49:33;6.35;;;1.90;;
47153;SDS011;32907;41.412;2.164;2023-03-12T02:52:22;6.93;;;2.75;;
47153;SDS011;32907;41.412;2.164;2023-03-12T02:54:56;3.53;;;1.90;;
47153;SDS011;32907;41.412;2.164;2023-03-12T02:57:24;4.13;;;1.90;;
47153;SDS011;32907;41.412;2.164;2023-03-12T02:59:52;4.20;;;1.80;;
47153;SDS011;32907;41.412;2.164;2023-03-12T03:02:21;3.58;;;1.75;;
47153;SDS011;32907;41.412;2.164;2023-03-12T03:04:50;3.58;;;1.88;;
47153;SDS011;32907;41.412;2.164;2023-03-12T03:07:18;3.40;;;1.90;;
47153;SDS011;32907;41.412;2.164;2023-03-12T03:09:46;2.80;;;1.33;;
47153;SDS011;32907;41.412;2.164;2023-03-12T03:12:15;3.63;;;1.92;;
47153;SDS011;32907;41.412;2.164;2023-03-12T03:14:42;4.45;;;1.65;;
47153;SDS011;32907;41.412;2.164;2023-03-12T03:17:10;2.90;;;1.50;;
47153;SDS011;32907;41.412;2.164;2023-03-12T03:19:38;2.55;;;1.92;;
47153;SDS011;32907;41.412;2.164;2023-03-12T03:22:06;3.90;;;1.90;;
47153;SDS011;32907;41.412;2.164;2023-03-12T03:24:34;3.63;;;2.13;;
47153;SDS011;32907;41.412;2.164;2023-03-12T03:27:02;5.97;;;2.20;;
47153;SDS011;32907;41.412;2.164;2023-03-12T03:29:32;3.88;;;2.15;;
47153;SDS011;32907;41.412;2.164;2023-03-12T03:32:01;3.33;;;2.00;;
47153;SDS011;32907;41.412;2.164;2023-03-12T03:34:29;4.05;;;2.03;;
47153;SDS011;32907;41.412;2.164;2023-03-12T03:36:58;3.30;;;1.65;;
47153;SDS011;32907;41.412;2.164;2023-03-12T03:39:27;4.68;;;2.30;;
47153;SDS011;32907;41.412;2.164;2023-03-12T03:41:57;3.35;;;1.58;;
47153;SDS011;32907;41.412;2.164;2023-03-12T03:44:28;2.40;;;1.55;;
47153;SDS011;32907;41.412;2.164;2023-03-12T03:46:57;3.33;;;1.65;;
47153;SDS011;32907;41.412;2.164;2023-03-12T03:49:25;2.35;;;1.20;;
47153;SDS011;32907;41.412;2.164;2023-03-12T03:51:53;2.38;;;1.33;;
47153;SDS011;32907;41.412;2.164;2023-03-12T03:54:28;2.70;;;1.60;;
47153;SDS011;32907;41.412;2.164;2023-03-12T03:56:58;2.15;;;1.10;;
47153;SDS011;32907;41.412;2.164;2023-03-12T03:59:27;1.90;;;1.10;;
47153;SDS011;32907;41.412;2.164;2023-03-12T04:01:55;2.53;;;1.10;;
47153;SDS011;32907;41.412;2.164;2023-03-12T04:04:24;3.28;;;1.13;;
47153;SDS011;32907;41.412;2.164;2023-03-12T04:06:52;2.33;;;0.90;;
47153;SDS011;32907;41.412;2.164;2023-03-12T04:09:21;1.50;;;0.80;;
47153;SDS011;32907;41.412;2.164;2023-03-12T04:11:49;4.40;;;1.20;;
47153;SDS011;32907;41.412;2.164;2023-03-12T04:14:18;2.25;;;1.35;;
47153;SDS011;32907;41.412;2.164;2023-03-12T04:16:46;2.63;;;1.38;;
47153;SDS011;32907;41.412;2.164;2023-03-12T04:19:14;4.65;;;1.88;;
47153;SDS011;32907;41.412;2.164;2023-03-12T04:21:42;3.72;;;2.00;;
47153;SDS011;32907;41.412;2.164;2023-03-12T04:24:15;4.47;;;2.13;;
47153;SDS011;32907;41.412;2.164;2023-03-12T04:26:44;3.85;;;2.15;;
47153;SDS011;32907;41.412;2.164;2023-03-12T04:29:13;3.97;;;2.25;;
47153;SDS011;32907;41.412;2.164;2023-03-12T04:31:42;7.20;;;2.72;;
47153;SDS011;32907;41.412;2.164;2023-03-12T04:34:10;5.03;;;2.22;;
47153;SDS011;32907;41.412;2.164;2023-03-12T04:36:42;4.35;;;2.38;;
47153;SDS011;32907;41.412;2.164;2023-03-12T04:39:11;5.47;;;2.70;;
47153;SDS011;32907;41.412;2.164;2023-03-12T04:41:40;4.18;;;2.22;;
47153;SDS011;32907;41.412;2.164;2023-03-12T04:44:12;4.88;;;2.53;;
47153;SDS011;32907;41.412;2.164;2023-03-12T04:46:41;3.78;;;2.00;;
47153;SDS011;32907;41.412;2.164;2023-03-12T04:49:13;4.15;;;1.85;;
47153;SDS011;32907;41.412;2.164;2023-03-12T04:51:42;3.88;;;1.88;;
47153;SDS011;32907;41.412;2.164;2023-03-12T04:54:10;4.57;;;2.00;;
47153;SDS011;32907;41.412;2.164;2023-03-12T04:56:40;4.68;;;2.40;;
47153;SDS011;32907;41.412;2.164;2023-03-12T04:59:09;4.05;;;2.13;;
47153;SDS011;32907;41.412;2.164;2023-03-12T05:01:39;5.32;;;2.47;;
47153;SDS011;32907;41.412;2.164;2023-03-12T05:04:13;4.82;;;1.92;;
47153;SDS011;32907;41.412;2.164;2023-03-12T05:06:42;4.35;;;2.00;;
47153;SDS011;32907;41.412;2.164;2023-03-12T05:09:10;5.03;;;2.25;;
47153;SDS011;32907;41.412;2.164;2023-03-12T05:11:38;5.07;;;2.28;;
47153;SDS011;32907;41.412;2.164;2023-03-12T05:14:10;5.53;;;2.22;;
47153;SDS011;32907;41.412;2.164;2023-03-12T05:16:39;5.05;;;2.28;;
47153;SDS011;32907;41.412;2.164;2023-03-12T05:19:08;5.53;;;2.05;;
47153;SDS011;32907;41.412;2.164;2023-03-12T05:21:36;6.75;;;2.47;;
47153;SDS011;32907;41.412;2.164;2023-03-12T05:24:06;5.43;;;1.90;;
47153;SDS011;32907;41.412;2.164;2023-03-12T05:26:35;4.45;;;2.00;;
47153;SDS011;32907;41.412;2.164;2023-03-12T05:29:14;6.38;;;2.08;;
47153;SDS011;32907;41.412;2.164;2023-03-12T05:31:42;5.10;;;2.20;;
47153;SDS011;32907;41.412;2.164;2023-03-12T05:34:11;8.13;;;2.83;;
47153;SDS011;32907;41.412;2.164;2023-03-12T05:36:42;7.38;;;2.25;;
47153;SDS011;32907;41.412;2.164;2023-03-12T05:39:14;5.82;;;2.20;;
47153;SDS011;32907;41.412;2.164;2023-03-12T05:41:42;5.18;;;2.00;;
47153;SDS011;32907;41.412;2.164;2023-03-12T05:44:14;6.75;;;2.55;;
47153;SDS011;32907;41.412;2.164;2023-03-12T05:46:46;6.65;;;1.67;;
47153;SDS011;32907;41.412;2.164;2023-03-12T05:49:14;4.65;;;2.10;;
47153;SDS011;32907;41.412;2.164;2023-03-12T05:51:42;6.72;;;2.30;;
47153;SDS011;32907;41.412;2.164;2023-03-12T05:54:10;6.05;;;2.50;;
47153;SDS011;32907;41.412;2.164;2023-03-12T05:56:39;7.53;;;2.75;;
47153;SDS011;32907;41.412;2.164;2023-03-12T05:59:07;5.93;;;2.10;;
47153;SDS011;32907;41.412;2.164;2023-03-12T06:01:38;6.85;;;2.22;;
47153;SDS011;32907;41.412;2.164;2023-03-12T06:04:07;6.88;;;2.20;;
47153;SDS011;32907;41.412;2.164;2023-03-12T06:06:36;6.70;;;2.40;;
47153;SDS011;32907;41.412;2.164;2023-03-12T06:09:04;8.73;;;1.95;;
47153;SDS011;32907;41.412;2.164;2023-03-12T06:11:33;8.48;;;2.47;;
47153;SDS011;32907;41.412;2.164;2023-03-12T06:14:02;7.50;;;2.70;;
47153;SDS011;32907;41.412;2.164;2023-03-12T06:16:31;5.38;;;2.13;;
47153;SDS011;32907;41.412;2.164;2023-03-12T06:19:01;7.28;;;2.13;;
47153;SDS011;32907;41.412;2.164;2023-03-12T06:21:32;5.97;;;2.25;;
47153;SDS011;32907;41.412;2.164;2023-03-12T06:24:03;6.28;;;2.15;;
47153;SDS011;32907;41.412;2.164;2023-03-12T06:26:42;8.65;;;2.70;;
47153;SDS011;32907;41.412;2.164;2023-03-12T06:29:10;10.60;;;2.85;;
47153;SDS011;32907;41.412;2.164;2023-03-12T06:31:38;5.40;;;2.30;;
47153;SDS011;32907;41.412;2.164;2023-03-12T06:34:08;3.78;;;1.90;;
47153;SDS011;32907;41.412;2.164;2023-03-12T06:36:36;5.70;;;2.00;;
47153;SDS011;32907;41.412;2.164;2023-03-12T06:39:04;8.38;;;2.95;;
47153;SDS011;32907;41.412;2.164;2023-03-12T06:41:34;8.23;;;2.55;;
47153;SDS011;32907;41.412;2.164;2023-03-12T06:44:03;6.00;;;2.03;;
47153;SDS011;32907;41.412;2.164;2023-03-12T06:46:32;7.03;;;2.10;;
47153;SDS011;32907;41.412;2.164;2023-03-12T06:49:00;9.38;;;3.03;;
47153;SDS011;32907;41.412;2.164;2023-03-12T06:51:28;7.82;;;2.60;;
47153;SDS011;32907;41.412;2.164;2023-03-12T06:53:56;8.60;;;2.90;;
47153;SDS011;32907;41.412;2.164;2023-03-12T06:56:24;8.95;;;3.88;;
47153;SDS011;32907;41.412;2.164;2023-03-12T06:58:52;8.38;;;3.60;;
47153;SDS011;32907;41.412;2.164;2023-03-12T07:01:20;8.90;;;2.80;;
47153;SDS011;32907;41.412;2.164;2023-03-12T07:03:48;8.75;;;3.63;;
47153;SDS011;32907;41.412;2.164;2023-03-12T07:06:17;10.25;;;4.10;;
47153;SDS011;32907;41.412;2.164;2023-03-12T07:08:47;12.20;;;4.95;;
47153;SDS011;32907;41.412;2.164;2023-03-12T07:11:15;11.40;;;4.60;;
47153;SDS011;32907;41.412;2.164;2023-03-12T07:13:44;8.73;;;4.07;;
47153;SDS011;32907;41.412;2.164;2023-03-12T07:16:13;12.07;;;4.38;;
47153;SDS011;32907;41.412;2.164;2023-03-12T07:18:41;9.20;;;3.95;;
47153;SDS011;32907;41.412;2.164;2023-03-12T07:21:09;14.85;;;4.90;;
47153;SDS011;32907;41.412;2.164;2023-03-12T07:23:37;11.75;;;5.15;;
47153;SDS011;32907;41.412;2.164;2023-03-12T07:26:07;7.97;;;4.20;;
47153;SDS011;32907;41.412;2.164;2023-03-12T07:28:35;11.65;;;5.00;;
47153;SDS011;32907;41.412;2.164;2023-03-12T07:31:03;13.73;;;5.03;;
47153;SDS011;32907;41.412;2.164;2023-03-12T07:33:33;9.70;;;4.50;;
47153;SDS011;32907;41.412;2.164;2023-03-12T07:36:02;11.48;;;4.93;;
47153;SDS011;32907;41.412;2.164;2023-03-12T07:38:30;15.85;;;7.88;;
47153;SDS011;32907;41.412;2.164;2023-03-12T07:40:58;17.85;;;11.15;;
47153;SDS011;32907;41.412;2.164;2023-03-12T07:43:27;28.15;;;16.55;;
47153;SDS011;32907;41.412;2.164;2023-03-12T07:45:55;31.65;;;19.73;;
47153;SDS011;32907;41.412;2.164;2023-03-12T07:48:23;41.00;;;19.98;;
47153;SDS011;32907;41.412;2.164;2023-03-12T07:50:51;34.65;;;14.38;;
47153;SDS011;32907;41.412;2.164;2023-03-12T07:53:20;24.77;;;9.70;;
47153;SDS011;32907;41.412;2.164;2023-03-12T07:55:48;25.60;;;8.43;;
47153;SDS011;32907;41.412;2.164;2023-03-12T07:58:19;21.13;;;7.05;;
47153;SDS011;32907;41.412;2.164;2023-03-12T08:00:47;18.88;;;6.88;;
47153;SDS011;32907;41.412;2.164;2023-03-12T08:03:16;40.40;;;9.05;;
47153;SDS011;32907;41.412;2.164;2023-03-12T08:05:53;35.45;;;8.10;;
47153;SDS011;32907;41.412;2.164;2023-03-12T08:08:23;41.85;;;8.38;;
47153;SDS011;32907;41.412;2.164;2023-03-12T08:10:51;26.33;;;7.57;;
47153;SDS011;32907;41.412;2.164;2023-03-12T08:13:19;33.97;;;6.35;;
47153;SDS011;32907;41.412;2.164;2023-03-12T08:15:50;22.20;;;5.72;;
47153;SDS011;32907;41.412;2.164;2023-03-12T08:18:21;10.60;;;4.80;;
47153;SDS011;32907;41.412;2.164;2023-03-12T08:20:52;13.75;;;5.22;;
47153;SDS011;32907;41.412;2.164;2023-03-12T08:23:20;13.43;;;4.82;;
47153;SDS011;32907;41.412;2.164;2023-03-12T08:25:49;14.10;;;5.93;;
47153;SDS011;32907;41.412;2.164;2023-03-12T08:28:19;11.60;;;4.38;;
47153;SDS011;32907;41.412;2.164;2023-03-12T08:30:53;10.70;;;4.45;;
47153;SDS011;32907;41.412;2.164;2023-03-12T08:33:24;11.32;;;3.50;;
47153;SDS011;32907;41.412;2.164;2023-03-12T08:35:53;46.85;;;6.82;;
47153;SDS011;32907;41.412;2.164;2023-03-12T08:38:20;14.23;;;4.28;;
47153;SDS011;32907;41.412;2.164;2023-03-12T08:40:56;7.93;;;2.80;;
47153;SDS011;32907;41.412;2.164;2023-03-12T08:43:25;15.10;;;4.10;;
47153;SDS011;32907;41.412;2.164;2023-03-12T08:45:56;9.88;;;4.43;;
47153;SDS011;32907;41.412;2.164;2023-03-12T08:48:26;13.00;;;5.53;;
47153;SDS011;32907;41.412;2.164;2023-03-12T08:50:56;8.65;;;4.40;;
47153;SDS011;32907;41.412;2.164;2023-03-12T08:53:25;10.90;;;4.30;;
47153;SDS011;32907;41.412;2.164;2023-03-12T08:55:53;19.00;;;4.03;;
47153;SDS011;32907;41.412;2.164;2023-03-12T08:58:24;10.75;;;5.47;;
47153;SDS011;32907;41.412;2.164;2023-03-12T09:00:52;11.18;;;4.65;;
47153;SDS011;32907;41.412;2.164;2023-03-12T09:03:22;10.40;;;4.07;;
47153;SDS011;32907;41.412;2.164;2023-03-12T09:06:05;9.52;;;3.78;;
47153;SDS011;32907;41.412;2.164;2023-03-12T09:08:39;9.15;;;3.13;;
47153;SDS011;32907;41.412;2.164;2023-03-12T09:11:09;7.53;;;3.03;;
47153;SDS011;32907;41.412;2.164;2023-03-12T09:17:01;14.88;;;5.22;;
47153;SDS011;32907;41.412;2.164;2023-03-12T09:19:34;11.73;;;5.60;;
47153;SDS011;32907;41.412;2.164;2023-03-12T09:22:12;13.48;;;5.68;;
47153;SDS011;32907;41.412;2.164;2023-03-12T09:24:50;19.75;;;7.20;;
47153;SDS011;32907;41.412;2.164;2023-03-12T09:27:20;18.55;;;4.65;;
47153;SDS011;32907;41.412;2.164;2023-03-12T09:29:52;10.98;;;3.80;;
47153;SDS011;32907;41.412;2.164;2023-03-12T09:32:34;10.98;;;4.57;;
47153;SDS011;32907;41.412;2.164;2023-03-12T09:35:15;33.45;;;11.20;;
47153;SDS011;32907;41.412;2.164;2023-03-12T09:37:50;26.33;;;13.60;;
47153;SDS011;32907;41.412;2.164;2023-03-12T09:40:28;28.75;;;12.35;;
47153;SDS011;32907;41.412;2.164;2023-03-12T09:43:17;26.65;;;11.68;;
47153;SDS011;32907;41.412;2.164;2023-03-12T09:45:52;17.50;;;7.85;;
47153;SDS011;32907;41.412;2.164;2023-03-12T09:48:30;13.05;;;3.45;;
47153;SDS011;32907;41.412;2.164;2023-03-12T09:51:00;13.45;;;3.33;;
47153;SDS011;32907;41.412;2.164;2023-03-12T09:53:39;8.68;;;3.47;;
47153;SDS011;32907;41.412;2.164;2023-03-12T09:56:14;8.50;;;2.92;;
47153;SDS011;32907;41.412;2.164;2023-03-12T09:58:46;12.68;;;3.35;;
47153;SDS011;32907;41.412;2.164;2023-03-12T10:06:51;13.77;;;5.80;;
47153;SDS011;32907;41.412;2.164;2023-03-12T10:15:18;12.50;;;5.88;;
47153;SDS011;32907;41.412;2.164;2023-03-12T10:17:57;14.48;;;6.55;;
47153;SDS011;32907;41.412;2.164;2023-03-12T10:20:48;25.67;;;9.90;;
47153;SDS011;32907;41.412;2.164;2023-03-12T10:26:22;17.50;;;8.95;;
47153;SDS011;32907;41.412;2.164;2023-03-12T10:28:56;15.18;;;8.13;;
47153;SDS011;32907;41.412;2.164;2023-03-12T10:33:57;18.95;;;8.35;;
47153;SDS011;32907;41.412;2.164;2023-03-12T10:36:38;21.10;;;8.27;;
47153;SDS011;32907;41.412;2.164;2023-03-12T10:39:14;17.25;;;7.50;;
47153;SDS011;32907;41.412;2.164;2023-03-12T10:41:45;15.90;;;5.93;;
47153;SDS011;32907;41.412;2.164;2023-03-12T10:44:16;15.65;;;5.47;;
47153;SDS011;32907;41.412;2.164;2023-03-12T10:49:29;18.55;;;5.53;;
47153;SDS011;32907;41.412;2.164;2023-03-12T10:52:04;17.00;;;5.93;;
47153;SDS011;32907;41.412;2.164;2023-03-12T10:54:37;15.70;;;4.80;;
47153;SDS011;32907;41.412;2.164;2023-03-12T10:57:07;11.68;;;3.80;;
47153;SDS011;32907;41.412;2.164;2023-03-12T10:59:37;17.40;;;3.58;;
47153;SDS011;32907;41.412;2.164;2023-03-12T11:05:23;8.10;;;2.90;;
47153;SDS011;32907;41.412;2.164;2023-03-12T11:07:53;10.48;;;3.25;;
47153;SDS011;32907;41.412;2.164;2023-03-12T11:15:35;10.05;;;2.83;;
47153;SDS011;32907;41.412;2.164;2023-03-12T11:18:18;8.55;;;2.58;;
47153;SDS011;32907;41.412;2.164;2023-03-12T11:20:48;9.07;;;2.53;;
47153;SDS011;32907;41.412;2.164;2023-03-12T11:23:23;9.15;;;2.60;;
47153;SDS011;32907;41.412;2.164;2023-03-12T11:26:01;10.02;;;3.15;;
47153;SDS011;32907;41.412;2.164;2023-03-12T11:28:42;14.90;;;4.43;;
47153;SDS011;32907;41.412;2.164;2023-03-12T11:31:21;11.98;;;4.10;;
47153;SDS011;32907;41.412;2.164;2023-03-12T11:33:53;12.50;;;4.03;;
47153;SDS011;32907;41.412;2.164;2023-03-12T11:48:01;12.68;;;4.38;;
47153;SDS011;32907;41.412;2.164;2023-03-12T11:53:37;12.27;;;6.25;;
47153;SDS011;32907;41.412;2.164;2023-03-12T12:02:33;20.63;;;14.00;;
47153;SDS011;32907;41.412;2.164;2023-03-12T12:10:58;10.15;;;4.35;;
47153;SDS011;32907;41.412;2.164;2023-03-12T12:16:36;7.53;;;3.80;;
47153;SDS011;32907;41.412;2.164;2023-03-12T12:22:29;7.45;;;3.53;;
47153;SDS011;32907;41.412;2.164;2023-03-12T12:25:30;8.30;;;3.85;;
47153;SDS011;32907;41.412;2.164;2023-03-12T12:28:15;11.00;;;3.85;;
47153;SDS011;32907;41.412;2.164;2023-03-12T12:36:39;7.72;;;3.30;;
47153;SDS011;32907;41.412;2.164;2023-03-12T12:39:14;10.30;;;3.70;;
47153;SDS011;32907;41.412;2.164;2023-03-12T12:44:27;9.23;;;4.55;;
47153;SDS011;32907;41.412;2.164;2023-03-12T12:47:01;11.00;;;4.30;;
47153;SDS011;32907;41.412;2.164;2023-03-12T12:49:42;10.90;;;5.15;;
47153;SDS011;32907;41.412;2.164;2023-03-12T12:52:17;9.73;;;5.30;;
47153;SDS011;32907;41.412;2.164;2023-03-12T12:57:46;13.80;;;4.75;;
47153;SDS011;32907;41.412;2.164;2023-03-12T13:02:50;37.50;;;18.27;;
47153;SDS011;32907;41.412;2.164;2023-03-12T13:05:25;32.97;;;16.60;;
47153;SDS011;32907;41.412;2.164;2023-03-12T13:08:03;31.00;;;14.98;;
47153;SDS011;32907;41.412;2.164;2023-03-12T13:13:11;19.77;;;10.40;;
47153;SDS011;32907;41.412;2.164;2023-03-12T13:15:46;17.15;;;8.48;;
47153;SDS011;32907;41.412;2.164;2023-03-12T13:18:27;17.35;;;8.30;;
47153;SDS011;32907;41.412;2.164;2023-03-12T13:21:05;18.20;;;9.77;;
47153;SDS011;32907;41.412;2.164;2023-03-12T13:26:41;20.13;;;9.20;;
47153;SDS011;32907;41.412;2.164;2023-03-12T13:29:20;19.05;;;9.23;;
47153;SDS011;32907;41.412;2.164;2023-03-12T13:31:59;14.18;;;8.15;;
47153;SDS011;32907;41.412;2.164;2023-03-12T13:34:31;18.70;;;10.10;;
47153;SDS011;32907;41.412;2.164;2023-03-12T13:45:39;14.80;;;7.07;;
47153;SDS011;32907;41.412;2.164;2023-03-12T13:48:22;12.30;;;6.03;;
47153;SDS011;32907;41.412;2.164;2023-03-12T13:50:59;10.80;;;5.28;;
47153;SDS011;32907;41.412;2.164;2023-03-12T13:53:37;10.10;;;4.70;;
47153;SDS011;32907;41.412;2.164;2023-03-12T13:56:10;9.98;;;4.70;;
47153;SDS011;32907;41.412;2.164;2023-03-12T13:58:48;10.18;;;5.20;;
47153;SDS011;32907;41.412;2.164;2023-03-12T14:01:20;8.25;;;4.22;;
47153;SDS011;32907;41.412;2.164;2023-03-12T14:03:55;9.50;;;4.55;;
47153;SDS011;32907;41.412;2.164;2023-03-12T14:06:27;6.32;;;3.10;;
47153;SDS011;32907;41.412;2.164;2023-03-12T14:11:51;7.85;;;2.78;;
47153;SDS011;32907;41.412;2.164;2023-03-12T14:17:18;5.43;;;2.45;;
47153;SDS011;32907;41.412;2.164;2023-03-12T14:19:54;6.45;;;2.28;;
47153;SDS011;32907;41.412;2.164;2023-03-12T14:22:31;6.13;;;2.63;;
47153;SDS011;32907;41.412;2.164;2023-03-12T14:25:13;6.60;;;2.50;;
47153;SDS011;32907;41.412;2.164;2023-03-12T14:28:03;6.95;;;2.45;;
47153;SDS011;32907;41.412;2.164;2023-03-12T14:33:19;8.52;;;2.30;;
47153;SDS011;32907;41.412;2.164;2023-03-12T14:35:56;6.70;;;2.58;;
47153;SDS011;32907;41.412;2.164;2023-03-12T14:38:36;8.10;;;2.83;;
47153;SDS011;32907;41.412;2.164;2023-03-12T14:41:20;9.05;;;3.28;;
47153;SDS011;32907;41.412;2.164;2023-03-12T14:44:02;10.25;;;3.65;;
47153;SDS011;32907;41.412;2.164;2023-03-12T14:47:00;9.57;;;3.50;;
47153;SDS011;32907;41.412;2.164;2023-03-12T14:49:37;8.32;;;3.40;;
47153;SDS011;32907;41.412;2.164;2023-03-12T14:52:06;6.75;;;2.85;;
47153;SDS011;32907;41.412;2.164;2023-03-12T14:54:39;7.18;;;3.35;;
47153;SDS011;32907;41.412;2.164;2023-03-12T14:57:19;11.10;;;3.25;;
47153;SDS011;32907;41.412;2.164;2023-03-12T14:59:57;4.63;;;2.50;;
47153;SDS011;32907;41.412;2.164;2023-03-12T15:02:26;6.68;;;2.63;;
47153;SDS011;32907;41.412;2.164;2023-03-12T15:04:58;4.63;;;2.47;;
47153;SDS011;32907;41.412;2.164;2023-03-12T15:07:30;7.97;;;3.05;;
47153;SDS011;32907;41.412;2.164;2023-03-12T15:10:02;7.03;;;2.47;;
47153;SDS011;32907;41.412;2.164;2023-03-12T15:12:35;6.25;;;2.85;;
47153;SDS011;32907;41.412;2.164;2023-03-12T15:15:08;6.35;;;2.70;;
47153;SDS011;32907;41.412;2.164;2023-03-12T15:17:44;5.45;;;2.53;;
47153;SDS011;32907;41.412;2.164;2023-03-12T15:20:13;6.70;;;2.40;;
47153;SDS011;32907;41.412;2.164;2023-03-12T15:22:43;4.10;;;2.20;;
47153;SDS011;32907;41.412;2.164;2023-03-12T15:25:20;4.93;;;2.42;;
47153;SDS011;32907;41.412;2.164;2023-03-12T15:30:42;5.75;;;2.65;;
47153;SDS011;32907;41.412;2.164;2023-03-12T15:35:42;6.22;;;2.30;;
47153;SDS011;32907;41.412;2.164;2023-03-12T15:38:30;5.43;;;2.55;;
47153;SDS011;32907;41.412;2.164;2023-03-12T15:41:02;4.38;;;1.90;;
47153;SDS011;32907;41.412;2.164;2023-03-12T15:43:36;8.38;;;2.75;;
47153;SDS011;32907;41.412;2.164;2023-03-12T15:46:04;6.93;;;3.13;;
47153;SDS011;32907;41.412;2.164;2023-03-12T15:48:34;8.20;;;2.88;;
47153;SDS011;32907;41.412;2.164;2023-03-12T15:54:21;10.68;;;4.90;;
47153;SDS011;32907;41.412;2.164;2023-03-12T15:56:46;11.50;;;5.63;;
47153;SDS011;32907;41.412;2.164;2023-03-12T16:01:49;8.43;;;5.07;;
47153;SDS011;32907;41.412;2.164;2023-03-12T16:04:20;9.05;;;4.68;;
47153;SDS011;32907;41.412;2.164;2023-03-12T16:06:49;8.20;;;5.63;;
47153;SDS011;32907;41.412;2.164;2023-03-12T16:09:18;9.43;;;6.30;;
47153;SDS011;32907;41.412;2.164;2023-03-12T16:11:51;9.77;;;6.03;;
47153;SDS011;32907;41.412;2.164;2023-03-12T16:14:30;10.43;;;6.13;;
47153;SDS011;32907;41.412;2.164;2023-03-12T16:17:00;11.57;;;5.78;;
47153;SDS011;32907;41.412;2.164;2023-03-12T16:19:29;8.13;;;4.40;;
47153;SDS011;32907;41.412;2.164;2023-03-12T16:22:00;9.32;;;4.22;;
47153;SDS011;32907;41.412;2.164;2023-03-12T16:24:28;7.82;;;4.40;;
47153;SDS011;32907;41.412;2.164;2023-03-12T16:26:56;7.80;;;4.82;;
47153;SDS011;32907;41.412;2.164;2023-03-12T16:29:28;9.73;;;4.60;;
47153;SDS011;32907;41.412;2.164;2023-03-12T16:32:08;8.98;;;5.53;;
47153;SDS011;32907;41.412;2.164;2023-03-12T16:34:37;10.35;;;4.88;;
47153;SDS011;32907;41.412;2.164;2023-03-12T16:37:08;9.57;;;4.30;;
47153;SDS011;32907;41.412;2.164;2023-03-12T16:39:43;10.98;;;5.72;;
47153;SDS011;32907;41.412;2.164;2023-03-12T16:42:14;9.32;;;5.55;;
47153;SDS011;32907;41.412;2.164;2023-03-12T16:44:44;9.40;;;5.30;;
47153;SDS011;32907;41.412;2.164;2023-03-12T16:47:15;10.02;;;4.65;;
47153;SDS011;32907;41.412;2.164;2023-03-12T16:49:42;7.43;;;3.75;;
47153;SDS011;32907;41.412;2.164;2023-03-12T16:52:15;5.35;;;3.25;;
47153;SDS011;32907;41.412;2.164;2023-03-12T16:54:48;6.45;;;2.78;;
47153;SDS011;32907;41.412;2.164;2023-03-12T16:57:26;5.38;;;2.25;;
47153;SDS011;32907;41.412;2.164;2023-03-12T16:59:59;6.07;;;2.67;;
47153;SDS011;32907;41.412;2.164;2023-03-12T17:02:28;6.15;;;2.20;;
47153;SDS011;32907;41.412;2.164;2023-03-12T17:04:56;4.78;;;2.15;;
47153;SDS011;32907;41.412;2.164;2023-03-12T17:07:24;5.53;;;1.83;;
47153;SDS011;32907;41.412;2.164;2023-03-12T17:09:52;4.88;;;1.98;;
47153;SDS011;32907;41.412;2.164;2023-03-12T17:14:56;5.38;;;2.25;;
47153;SDS011;32907;41.412;2.164;2023-03-12T17:17:26;6.32;;;1.90;;
47153;SDS011;32907;41.412;2.164;2023-03-12T17:19:54;4.82;;;1.95;;
47153;SDS011;32907;41.412;2.164;2023-03-12T17:22:23;4.75;;;2.00;;
47153;SDS011;32907;41.412;2.164;2023-03-12T17:24:51;6.10;;;2.10;;